createdAt,value
2019-05-14T00:02:11.940Z,16.61
2019-05-14T00:04:43.122Z,16.56
2019-05-14T00:07:14.956Z,16.57
2019-05-14T00:09:46.804Z,16.58
2019-05-14T00:12:22.427Z,16.58
2019-05-14T00:14:54.371Z,16.58
2019-05-14T00:17:26.648Z,16.45
2019-05-14T00:20:07.238Z,16.37
2019-05-14T00:22:35.213Z,16.26
2019-05-14T00:25:07.364Z,16.18
2019-05-14T00:27:41.439Z,16.11
2019-05-14T00:30:16.761Z,16.16
2019-05-14T00:32:55.178Z,16.22
2019-05-14T00:35:27.073Z,16.22
2019-05-14T00:38:02.753Z,16.25
2019-05-14T00:40:34.742Z,16.23
2019-05-14T00:43:06.643Z,16.21
2019-05-14T00:45:41.804Z,16.16
2019-05-14T00:48:16.364Z,16.11
2019-05-14T00:50:52.299Z,16.00
2019-05-14T00:53:24.197Z,15.93
2019-05-14T00:55:58.736Z,15.97
2019-05-14T00:58:35.082Z,15.94
2019-05-14T01:01:06.939Z,15.93
2019-05-14T01:03:41.338Z,15.95
2019-05-14T01:06:17.604Z,15.94
2019-05-14T01:08:51.667Z,15.83
2019-05-14T01:11:24.361Z,15.73
2019-05-14T01:13:56.460Z,15.72
2019-05-14T01:16:28.504Z,15.65
2019-05-14T01:19:02.190Z,15.56
2019-05-14T01:21:34.271Z,15.49
2019-05-14T01:24:06.218Z,15.43
2019-05-14T01:26:38.309Z,15.31
2019-05-14T01:29:12.003Z,15.27
2019-05-14T01:31:44.064Z,15.22
2019-05-14T01:34:15.947Z,15.08
2019-05-14T01:36:47.818Z,15.01
2019-05-14T01:39:21.301Z,15.00
2019-05-14T01:41:55.990Z,15.01
2019-05-14T01:44:27.910Z,15.10
2019-05-14T01:47:01.989Z,15.00
2019-05-14T01:49:34.163Z,15.03
2019-05-14T01:52:06.042Z,15.01
2019-05-14T01:54:37.948Z,14.97
2019-05-14T01:57:11.484Z,14.79
2019-05-14T01:59:46.159Z,14.70
2019-05-14T02:02:18.133Z,14.73
2019-05-14T02:04:53.117Z,14.71
2019-05-14T02:07:25.381Z,14.66
2019-05-14T02:09:57.336Z,14.64
2019-05-14T02:12:31.400Z,14.70
2019-05-14T02:15:02.865Z,14.71
2019-05-14T02:17:35.815Z,14.73
2019-05-14T02:20:09.733Z,14.77
2019-05-14T02:22:41.894Z,14.78
2019-05-14T02:25:14.044Z,14.76
2019-05-14T02:27:45.897Z,14.68
2019-05-14T02:30:28.522Z,14.58
2019-05-14T02:32:56.060Z,14.55
2019-05-14T02:35:29.759Z,14.31
2019-05-14T02:38:02.140Z,14.16
2019-05-14T02:40:34.056Z,14.06
2019-05-14T02:43:09.433Z,13.92
2019-05-14T02:46:00.059Z,13.89
2019-05-14T02:48:14.660Z,13.84
2019-05-14T02:50:49.412Z,13.78
2019-05-14T02:53:21.164Z,13.77
2019-05-14T02:55:53.065Z,13.76
2019-05-14T02:58:29.869Z,13.78
2019-05-14T03:01:02.865Z,13.71
2019-05-14T03:03:40.230Z,13.74
2019-05-14T03:06:11.280Z,13.73
2019-05-14T03:08:43.293Z,13.61
2019-05-14T03:11:15.507Z,13.56
2019-05-14T03:13:49.446Z,13.63
2019-05-14T03:16:30.464Z,13.57
2019-05-14T03:18:55.594Z,13.57
2019-05-14T03:21:30.322Z,13.53
2019-05-14T03:24:01.615Z,13.49
2019-05-14T03:26:34.920Z,13.56
2019-05-14T03:29:09.923Z,13.63
2019-05-14T03:31:43.145Z,13.54
2019-05-14T03:34:22.189Z,13.54
2019-05-14T03:36:53.280Z,13.46
2019-05-14T03:39:25.355Z,13.35
2019-05-14T03:41:59.186Z,13.26
2019-05-14T03:44:31.527Z,13.21
2019-05-14T03:47:05.195Z,13.19
2019-05-14T03:49:39.701Z,13.17
2019-05-14T03:52:13.088Z,13.11
2019-05-14T03:54:45.090Z,13.09
2019-05-14T03:57:19.791Z,13.09
2019-05-14T03:59:50.719Z,13.20
2019-05-14T04:02:23.321Z,13.19
2019-05-14T04:04:55.562Z,13.15
2019-05-14T04:07:30.394Z,13.05
2019-05-14T04:10:04.325Z,13.09
2019-05-14T04:12:40.427Z,13.01
2019-05-14T04:15:12.789Z,12.94
2019-05-14T04:17:49.860Z,12.90
2019-05-14T04:20:19.896Z,12.77
2019-05-14T04:23:03.824Z,12.69
2019-05-14T04:25:38.985Z,12.62
2019-05-14T04:28:15.374Z,12.57
2019-05-14T04:30:50.167Z,12.64
2019-05-14T04:33:25.130Z,12.64
2019-05-14T04:35:59.845Z,12.61
2019-05-14T04:38:32.110Z,12.55
2019-05-14T04:41:04.012Z,12.46
2019-05-14T04:43:39.996Z,12.51
2019-05-14T04:46:12.166Z,12.42
2019-05-14T04:48:44.382Z,12.44
2019-05-14T04:51:19.630Z,12.39
2019-05-14T04:53:50.550Z,12.31
2019-05-14T04:56:22.782Z,12.18
2019-05-14T04:58:55.032Z,12.11
2019-05-14T05:01:29.422Z,12.06
2019-05-14T05:04:00.538Z,12.11
2019-05-14T05:06:33.167Z,12.08
2019-05-14T05:09:09.391Z,12.12
2019-05-14T05:11:41.036Z,12.14
2019-05-14T05:14:12.945Z,12.26
2019-05-14T05:16:45.675Z,12.31
2019-05-14T05:19:19.688Z,12.23
2019-05-14T05:21:51.258Z,12.22
2019-05-14T05:24:25.460Z,12.14
2019-05-14T05:26:58.568Z,12.07
2019-05-14T05:29:30.675Z,12.10
2019-05-14T05:32:02.616Z,12.15
2019-05-14T05:34:34.511Z,12.20
2019-05-14T05:37:08.651Z,12.23
2019-05-14T05:39:40.020Z,12.29
2019-05-14T05:42:12.210Z,12.33
2019-05-14T05:44:44.438Z,12.32
2019-05-14T05:47:18.254Z,12.41
2019-05-14T05:49:49.940Z,12.58
2019-05-14T05:52:21.899Z,12.66
2019-05-14T05:54:53.842Z,12.71
2019-05-14T05:57:28.206Z,12.83
2019-05-14T05:59:59.662Z,12.96
2019-05-14T06:02:31.677Z,13.33
2019-05-14T06:05:03.663Z,14.91
2019-05-14T06:07:35.659Z,16.71
2019-05-14T06:10:08.786Z,18.59
2019-05-14T06:12:43.827Z,19.76
2019-05-14T06:15:19.117Z,20.69
2019-05-14T06:17:52.200Z,21.61
2019-05-14T06:20:24.594Z,22.69
2019-05-14T06:22:58.726Z,22.68
2019-05-14T06:25:31.428Z,23.32
2019-05-14T06:28:03.433Z,24.19
2019-05-14T06:30:39.509Z,24.24
2019-05-14T06:33:11.729Z,24.94
2019-05-14T06:35:43.914Z,25.78
2019-05-14T06:38:15.810Z,26.91
2019-05-14T06:40:48.941Z,27.01
2019-05-14T06:43:28.497Z,27.24
2019-05-14T06:45:59.787Z,28.95
2019-05-14T06:48:34.753Z,29.68
2019-05-14T06:51:05.477Z,30.64
2019-05-14T06:53:39.215Z,31.66
2019-05-14T06:56:11.043Z,32.56
2019-05-14T06:58:42.963Z,32.75
2019-05-14T07:01:14.893Z,31.32
2019-05-14T07:03:49.032Z,31.55
2019-05-14T07:06:20.569Z,32.61
2019-05-14T07:08:53.770Z,32.04
2019-05-14T07:11:25.774Z,32.13
2019-05-14T07:13:58.184Z,33.88
2019-05-14T07:16:30.495Z,33.78
2019-05-14T07:19:02.398Z,31.89
2019-05-14T07:21:38.211Z,33.68
2019-05-14T07:24:09.634Z,33.52
2019-05-14T07:26:41.520Z,32.48
2019-05-14T07:29:15.040Z,32.11
2019-05-14T07:31:48.955Z,33.03
2019-05-14T07:34:20.643Z,33.43
2019-05-14T07:36:52.605Z,34.08
2019-05-14T07:39:29.106Z,35.27
2019-05-14T07:42:01.292Z,35.39
2019-05-14T07:44:33.201Z,37.24
2019-05-14T07:47:07.994Z,38.19
2019-05-14T07:49:40.596Z,38.84
2019-05-14T07:52:12.516Z,38.97
2019-05-14T07:54:44.473Z,38.98
2019-05-14T07:57:18.951Z,39.91
2019-05-14T07:59:50.025Z,39.68
2019-05-14T08:02:21.977Z,37.87
2019-05-14T08:04:54.069Z,39.61
2019-05-14T08:07:28.038Z,38.80
2019-05-14T08:09:59.883Z,39.12
2019-05-14T08:12:31.797Z,37.77
2019-05-14T08:15:15.231Z,39.74
2019-05-14T08:17:38.797Z,38.57
2019-05-14T08:20:11.749Z,38.25
2019-05-14T08:22:43.938Z,39.21
2019-05-14T08:25:18.971Z,39.96
2019-05-14T08:27:51.217Z,40.78
2019-05-14T08:30:23.421Z,41.62
2019-05-14T08:32:55.325Z,39.76
2019-05-14T08:35:29.068Z,39.55
2019-05-14T08:38:07.790Z,40.54
2019-05-14T08:40:34.632Z,40.60
2019-05-14T08:43:08.617Z,41.75
2019-05-14T08:45:40.294Z,42.22
2019-05-14T08:48:12.239Z,41.91
2019-05-14T08:50:44.147Z,42.78
2019-05-14T08:53:18.575Z,39.69
2019-05-14T08:55:50.429Z,39.06
2019-05-14T08:58:22.376Z,37.95
2019-05-14T09:00:58.827Z,38.17
2019-05-14T09:03:31.315Z,39.60
2019-05-14T09:06:04.436Z,39.51
2019-05-14T09:08:38.673Z,37.85
2019-05-14T09:11:10.215Z,39.28
2019-05-14T09:13:42.106Z,38.97
2019-05-14T09:16:14.024Z,37.26
2019-05-14T09:18:48.834Z,39.87
2019-05-14T09:21:20.826Z,40.87
2019-05-14T09:23:52.726Z,41.55
2019-05-14T09:26:24.657Z,39.26
2019-05-14T09:28:58.568Z,40.83
2019-05-14T09:31:30.315Z,41.14
2019-05-14T09:34:02.216Z,40.88
2019-05-14T09:36:34.418Z,40.59
2019-05-14T09:39:11.839Z,41.54
2019-05-14T09:41:41.632Z,40.99
2019-05-14T09:44:19.712Z,42.29
2019-05-14T09:46:51.632Z,40.55
2019-05-14T09:49:23.791Z,40.11
2019-05-14T09:51:58.354Z,39.35
2019-05-14T09:54:31.668Z,39.26
2019-05-14T09:57:05.377Z,40.72
2019-05-14T09:59:38.438Z,40.08
2019-05-14T10:02:10.469Z,39.24
2019-05-14T10:04:42.687Z,40.46
2019-05-14T10:07:16.106Z,40.15
2019-05-14T10:09:49.196Z,41.07
2019-05-14T10:12:21.242Z,37.80
2019-05-14T10:14:54.795Z,38.84
2019-05-14T10:17:29.039Z,39.54
2019-05-14T10:20:02.432Z,39.83
2019-05-14T10:22:39.537Z,40.52
2019-05-14T10:25:11.248Z,40.74
2019-05-14T10:27:43.144Z,40.79
2019-05-14T10:30:17.977Z,42.40
2019-05-14T10:32:49.399Z,39.68
2019-05-14T10:35:23.197Z,38.56
2019-05-14T10:37:55.119Z,38.99
2019-05-14T10:40:29.273Z,38.89
2019-05-14T10:43:03.623Z,39.24
2019-05-14T10:45:35.529Z,39.55
2019-05-14T10:48:10.047Z,41.19
2019-05-14T10:50:56.199Z,41.17
2019-05-14T10:53:15.540Z,41.65
2019-05-14T10:55:48.580Z,41.71
2019-05-14T10:58:20.606Z,40.43
2019-05-14T11:00:52.524Z,41.77
2019-05-14T11:03:24.577Z,40.79
2019-05-14T11:05:58.697Z,42.32
2019-05-14T11:08:30.167Z,43.47
2019-05-14T11:11:04.202Z,46.37
2019-05-14T11:13:35.788Z,45.54
2019-05-14T11:16:10.196Z,47.22
2019-05-14T11:18:42.568Z,46.04
2019-05-14T11:21:24.742Z,47.24
2019-05-14T11:23:49.083Z,46.10
2019-05-14T11:26:24.653Z,45.55
2019-05-14T11:28:55.162Z,45.94
2019-05-14T11:31:34.042Z,45.62
2019-05-14T11:34:03.392Z,47.16
2019-05-14T11:36:35.289Z,45.53
2019-05-14T11:39:09.385Z,44.97
2019-05-14T11:41:41.523Z,44.15
2019-05-14T11:44:16.491Z,43.08
2019-05-14T11:46:57.251Z,41.31
2019-05-14T11:49:22.250Z,39.36
2019-05-14T11:52:04.098Z,37.61
2019-05-14T11:54:29.180Z,35.86
2019-05-14T11:57:01.300Z,35.60
2019-05-14T11:59:34.944Z,34.99
2019-05-14T12:02:09.450Z,34.42
2019-05-14T12:04:40.432Z,33.65
2019-05-14T12:07:12.356Z,33.11
2019-05-14T12:09:44.257Z,32.89
2019-05-14T12:12:18.818Z,32.66
2019-05-14T12:14:51.480Z,32.55
2019-05-14T12:17:23.646Z,32.36
2019-05-14T12:19:55.545Z,32.67
2019-05-14T12:22:28.666Z,33.02
2019-05-14T12:25:00.730Z,33.23
2019-05-14T12:27:32.582Z,33.45
2019-05-14T12:30:04.769Z,33.31
2019-05-14T12:32:39.626Z,33.17
2019-05-14T12:35:12.096Z,33.10
2019-05-14T12:37:44.055Z,33.23
2019-05-14T12:40:19.414Z,33.65
2019-05-14T12:42:51.541Z,33.89
2019-05-14T12:45:23.571Z,33.98
2019-05-14T12:47:58.318Z,34.04
2019-05-14T12:50:29.441Z,33.55
2019-05-14T12:53:01.899Z,33.14
2019-05-14T12:55:33.828Z,33.07
2019-05-14T12:58:08.121Z,33.15
2019-05-14T13:00:39.658Z,33.52
2019-05-14T13:03:11.607Z,33.26
2019-05-14T13:05:44.821Z,33.76
2019-05-14T13:08:18.405Z,33.98
2019-05-14T13:10:52.146Z,34.10
2019-05-14T13:13:24.116Z,34.44
2019-05-14T13:15:57.902Z,34.52
2019-05-14T13:18:32.975Z,34.48
2019-05-14T13:21:05.221Z,34.09
2019-05-14T13:23:38.305Z,34.01
2019-05-14T13:26:11.005Z,34.39
2019-05-14T13:28:45.013Z,34.34
2019-05-14T13:31:20.827Z,34.03
2019-05-14T13:33:52.819Z,34.19
2019-05-14T13:36:24.785Z,34.00
2019-05-14T13:38:59.227Z,33.93
2019-05-14T13:41:30.613Z,34.08
2019-05-14T13:44:17.303Z,34.14
2019-05-14T13:46:36.369Z,34.42
2019-05-14T13:49:08.668Z,34.50
2019-05-14T13:51:40.616Z,34.27
2019-05-14T13:54:12.913Z,34.23
2019-05-14T13:56:48.386Z,33.95
2019-05-14T13:59:21.495Z,33.99
2019-05-14T14:01:54.885Z,34.16
2019-05-14T14:04:27.205Z,33.72
2019-05-14T14:06:59.210Z,33.69
2019-05-14T14:09:31.638Z,33.60
2019-05-14T14:12:05.494Z,33.68
2019-05-14T14:14:39.910Z,33.94
2019-05-14T14:17:11.883Z,33.55
2019-05-14T14:19:43.841Z,33.56
2019-05-14T14:22:19.082Z,33.57
2019-05-14T14:24:49.703Z,33.92
2019-05-14T14:27:22.300Z,33.86
2019-05-14T14:29:54.249Z,34.13
2019-05-14T14:32:26.211Z,33.98
2019-05-14T14:34:58.926Z,33.67
2019-05-14T14:37:31.212Z,33.52
2019-05-14T14:40:03.162Z,33.34
2019-05-14T14:42:36.224Z,33.11
2019-05-14T14:45:09.613Z,32.82
2019-05-14T14:47:41.745Z,32.65
2019-05-14T14:50:15.565Z,32.60
2019-05-14T14:52:49.592Z,32.28
2019-05-14T14:55:21.674Z,32.37
2019-05-14T14:57:55.263Z,32.38
2019-05-14T15:00:29.544Z,32.46
2019-05-14T15:03:01.668Z,32.23
2019-05-14T15:05:33.645Z,32.01
2019-05-14T15:08:10.045Z,31.92
2019-05-14T15:10:40.288Z,31.88
2019-05-14T15:13:13.618Z,31.79
2019-05-14T15:15:45.614Z,31.87
2019-05-14T15:18:18.771Z,31.69
2019-05-14T15:20:51.009Z,31.62
2019-05-14T15:23:28.475Z,31.55
2019-05-14T15:25:59.499Z,31.47
2019-05-14T15:28:31.503Z,31.33
2019-05-14T15:31:03.468Z,31.35
2019-05-14T15:33:38.902Z,31.27
2019-05-14T15:36:11.010Z,31.18
2019-05-14T15:38:43.010Z,31.07
2019-05-14T15:41:15.323Z,31.09
2019-05-14T15:43:47.390Z,30.95
2019-05-14T15:46:21.267Z,30.95
2019-05-14T15:48:55.595Z,30.71
2019-05-14T15:51:28.647Z,30.62
2019-05-14T15:54:15.953Z,30.49
2019-05-14T15:56:39.310Z,30.53
2019-05-14T15:59:09.906Z,30.56
2019-05-14T16:01:41.819Z,30.57
2019-05-14T16:04:13.738Z,30.47
2019-05-14T16:06:49.127Z,30.18
2019-05-14T16:09:21.499Z,30.12
2019-05-14T16:11:54.434Z,30.07
2019-05-14T16:14:26.408Z,30.15
2019-05-14T16:16:58.701Z,29.95
2019-05-14T16:19:30.655Z,30.04
2019-05-14T16:22:02.739Z,29.97
2019-05-14T16:24:53.005Z,29.80
2019-05-14T16:27:11.266Z,29.77
2019-05-14T16:29:45.992Z,29.67
2019-05-14T16:32:16.915Z,29.57
2019-05-14T16:34:49.006Z,29.67
2019-05-14T16:37:20.973Z,29.63
2019-05-14T16:39:55.689Z,29.54
2019-05-14T16:42:29.233Z,29.40
2019-05-14T16:45:01.372Z,29.40
2019-05-14T16:47:34.878Z,29.41
2019-05-14T16:50:08.929Z,29.45
2019-05-14T16:52:42.148Z,29.25
2019-05-14T16:55:24.546Z,29.23
2019-05-14T16:57:51.472Z,29.21
2019-05-14T17:00:23.516Z,28.98
2019-05-14T17:02:55.518Z,28.89
2019-05-14T17:05:29.898Z,28.92
2019-05-14T17:08:01.629Z,28.83
2019-05-14T17:10:33.765Z,28.69
2019-05-14T17:13:09.123Z,28.73
2019-05-14T17:15:41.383Z,28.65
2019-05-14T17:18:13.336Z,28.53
2019-05-14T17:20:45.691Z,28.53
2019-05-14T17:23:19.301Z,28.34
2019-05-14T17:25:51.399Z,28.26
2019-05-14T17:28:23.695Z,28.28
2019-05-14T17:30:55.693Z,28.20
2019-05-14T17:33:29.170Z,28.12
2019-05-14T17:36:02.282Z,28.09
2019-05-14T17:38:35.489Z,28.03
2019-05-14T17:41:09.431Z,28.01
2019-05-14T17:43:41.236Z,28.12
2019-05-14T17:46:18.213Z,28.10
2019-05-14T17:48:49.380Z,28.12
2019-05-14T17:51:22.973Z,28.13
2019-05-14T17:53:54.894Z,28.13
2019-05-14T17:56:28.409Z,28.14
2019-05-14T17:59:04.787Z,28.06
2019-05-14T18:01:39.079Z,27.94
2019-05-14T18:04:11.149Z,27.95
2019-05-14T18:06:48.642Z,27.98
2019-05-14T18:09:20.022Z,27.78
2019-05-14T18:11:55.418Z,27.68
2019-05-14T18:14:28.375Z,27.53
2019-05-14T18:17:00.483Z,27.42
2019-05-14T18:19:32.865Z,27.44
2019-05-14T18:22:04.832Z,27.29
2019-05-14T18:24:39.057Z,27.29
2019-05-14T18:27:12.109Z,27.24
2019-05-14T18:29:44.409Z,27.24
2019-05-14T18:32:16.367Z,27.07
2019-05-14T18:34:48.732Z,27.11
2019-05-14T18:37:20.801Z,27.08
2019-05-14T18:39:52.805Z,26.93
2019-05-14T18:42:24.893Z,26.94
2019-05-14T18:44:59.025Z,26.74
2019-05-14T18:47:31.403Z,26.55
2019-05-14T18:50:03.324Z,26.44
2019-05-14T18:52:35.405Z,26.26
2019-05-14T18:55:08.780Z,26.11
2019-05-14T18:57:40.847Z,25.95
2019-05-14T19:00:13.030Z,25.76
2019-05-14T19:02:45.071Z,25.57
2019-05-14T19:05:18.561Z,25.46
2019-05-14T19:07:50.586Z,25.38
2019-05-14T19:10:22.714Z,25.26
2019-05-14T19:12:54.774Z,25.10
2019-05-14T19:15:28.900Z,24.94
2019-05-14T19:18:01.442Z,24.81
2019-05-14T19:20:33.510Z,24.69
2019-05-14T19:23:08.277Z,24.58
2019-05-14T19:25:40.320Z,24.46
2019-05-14T19:28:12.451Z,24.20
2019-05-14T19:30:45.490Z,24.08
2019-05-14T19:33:28.733Z,24.00
2019-05-14T19:36:02.143Z,23.91
2019-05-14T19:38:38.835Z,23.79
2019-05-14T19:41:22.948Z,23.67
2019-05-14T19:43:54.327Z,23.54
2019-05-14T19:46:29.667Z,23.36
2019-05-14T19:49:01.881Z,23.28
2019-05-14T19:51:33.949Z,23.15
2019-05-14T19:54:08.173Z,22.99
2019-05-14T19:56:51.946Z,22.85
2019-05-14T19:59:13.789Z,22.71
2019-05-14T20:01:48.230Z,22.60
2019-05-14T20:04:19.451Z,22.47
2019-05-14T20:06:53.964Z,22.39
2019-05-14T20:09:54.250Z,22.27
2019-05-14T20:12:54.681Z,22.10
2019-05-14T20:15:31.365Z,21.96
2019-05-14T20:18:08.806Z,21.74
2019-05-14T20:20:43.203Z,21.55
2019-05-14T20:23:15.148Z,21.51
2019-05-14T20:25:48.193Z,21.43
2019-05-14T20:28:20.447Z,21.37
2019-05-14T20:30:55.339Z,21.25
2019-05-14T20:33:27.334Z,21.12
2019-05-14T20:36:02.377Z,21.05
2019-05-14T20:38:34.468Z,20.99
2019-05-14T20:41:08.659Z,20.89
2019-05-14T20:43:43.675Z,20.81
2019-05-14T20:46:18.647Z,20.72
2019-05-14T20:48:50.376Z,20.59
2019-05-14T20:51:22.362Z,20.40
2019-05-14T20:53:55.071Z,20.35
2019-05-14T20:56:28.438Z,20.25
2019-05-14T20:59:00.669Z,20.20
2019-05-14T21:01:32.775Z,20.10
2019-05-14T21:04:05.721Z,20.04
2019-05-14T21:06:39.012Z,19.95
2019-05-14T21:09:13.251Z,19.83
2019-05-14T21:11:45.390Z,19.67
2019-05-14T21:14:18.820Z,19.55
2019-05-14T21:16:53.739Z,19.48
2019-05-14T21:19:28.342Z,19.47
2019-05-14T21:22:02.149Z,19.39
2019-05-14T21:24:34.318Z,19.35
2019-05-14T21:27:09.113Z,19.30
2019-05-14T21:29:40.355Z,19.18
2019-05-14T21:32:12.527Z,19.21
2019-05-14T21:34:44.972Z,19.09
2019-05-14T21:37:18.881Z,18.95
2019-05-14T21:39:52.713Z,18.79
2019-05-14T21:42:28.561Z,18.68
2019-05-14T21:45:06.757Z,18.65
2019-05-14T21:47:38.742Z,18.57
2019-05-14T21:50:10.638Z,18.51
2019-05-14T21:53:12.127Z,18.50
2019-05-14T21:55:44.149Z,18.50
2019-05-14T21:58:18.727Z,18.53
2019-05-14T22:00:59.282Z,18.53
2019-05-14T22:03:35.588Z,18.41
2019-05-14T22:06:08.923Z,18.25
2019-05-14T22:08:48.893Z,18.23
2019-05-14T22:11:20.959Z,18.18
2019-05-14T22:13:54.517Z,18.19
2019-05-14T22:16:28.130Z,18.24
2019-05-14T22:19:01.883Z,18.23
2019-05-14T22:21:38.604Z,18.16
2019-05-14T22:24:11.137Z,18.02
2019-05-14T22:26:43.205Z,17.88
2019-05-14T22:29:17.912Z,17.72
2019-05-14T22:31:50.290Z,17.62
2019-05-14T22:34:23.567Z,17.49
2019-05-14T22:36:58.102Z,17.49
2019-05-14T22:39:30.333Z,17.44
2019-05-14T22:42:03.016Z,17.44
2019-05-14T22:44:37.298Z,17.42
2019-05-14T22:47:09.451Z,17.37
2019-05-14T22:49:41.655Z,17.34
2019-05-14T22:52:13.986Z,17.24
2019-05-14T22:54:45.998Z,17.19
2019-05-14T22:57:21.047Z,17.05
2019-05-14T23:00:00.736Z,16.97
2019-05-14T23:02:35.215Z,16.93
2019-05-14T23:05:09.396Z,16.88
2019-05-14T23:07:43.235Z,16.84
2019-05-14T23:10:18.372Z,16.90
2019-05-14T23:12:50.500Z,16.93
2019-05-14T23:15:22.582Z,16.87
2019-05-14T23:17:58.898Z,16.81
2019-05-14T23:20:31.003Z,16.80
2019-05-14T23:23:11.704Z,16.78
2019-05-14T23:25:46.782Z,16.70
2019-05-14T23:28:19.327Z,16.62
2019-05-14T23:30:53.220Z,16.56
2019-05-14T23:33:31.293Z,16.55
2019-05-14T23:36:05.176Z,16.54
2019-05-14T23:38:40.394Z,16.56
2019-05-14T23:41:14.041Z,16.58
2019-05-14T23:43:48.356Z,16.44
2019-05-14T23:46:25.577Z,16.42
2019-05-14T23:49:01.517Z,16.37
2019-05-14T23:51:34.653Z,16.27
2019-05-14T23:54:08.729Z,16.28
2019-05-14T23:56:40.462Z,16.29
2019-05-14T23:59:12.478Z,16.31
